createdAt,value
2018-09-02T00:01:50.770Z,2.62
2018-09-02T00:04:19.671Z,4.83
2018-09-02T00:06:48.578Z,3.77
2018-09-02T00:09:17.501Z,4.75
2018-09-02T00:11:46.557Z,6.22
2018-09-02T00:14:15.454Z,3.08
2018-09-02T00:16:44.331Z,4.17
2018-09-02T00:19:16.021Z,4.00
2018-09-02T00:21:44.894Z,5.55
2018-09-02T00:24:13.786Z,2.90
2018-09-02T00:26:42.685Z,5.05
2018-09-02T00:29:11.571Z,4.75
2018-09-02T00:31:40.474Z,4.42
2018-09-02T00:34:09.359Z,5.55
2018-09-02T00:36:38.259Z,4.35
2018-09-02T00:39:08.911Z,3.90
2018-09-02T00:41:38.750Z,6.08
2018-09-02T00:44:07.946Z,3.55
2018-09-02T00:46:36.839Z,4.42
2018-09-02T00:49:05.798Z,4.62
2018-09-02T00:51:34.723Z,3.87
2018-09-02T00:54:03.655Z,4.92
2018-09-02T00:56:32.658Z,3.77
2018-09-02T00:59:01.598Z,4.50
2018-09-02T01:01:30.541Z,3.87
2018-09-02T01:03:59.425Z,3.98
2018-09-02T01:06:28.382Z,6.62
2018-09-02T01:08:57.306Z,4.15
2018-09-02T01:11:26.189Z,6.53
2018-09-02T01:13:55.110Z,4.03
2018-09-02T01:16:24.027Z,4.85
2018-09-02T01:18:52.960Z,4.22
2018-09-02T01:21:21.860Z,4.37
2018-09-02T01:23:50.734Z,3.65
2018-09-02T01:26:19.622Z,7.37
2018-09-02T01:28:48.498Z,5.92
2018-09-02T01:31:17.386Z,3.62
2018-09-02T01:33:46.271Z,3.67
2018-09-02T01:36:15.156Z,5.55
2018-09-02T01:38:44.058Z,8.18
2018-09-02T01:41:12.945Z,8.73
2018-09-02T01:43:41.822Z,6.17
2018-09-02T01:46:10.711Z,3.30
2018-09-02T01:48:39.583Z,4.97
2018-09-02T01:51:08.567Z,6.55
2018-09-02T01:53:37.439Z,3.80
2018-09-02T01:56:06.345Z,3.55
2018-09-02T01:58:35.213Z,5.67
2018-09-02T02:01:04.146Z,4.42
2018-09-02T02:03:33.186Z,3.22
2018-09-02T02:06:02.130Z,5.70
2018-09-02T02:08:31.051Z,4.60
2018-09-02T02:10:59.970Z,7.17
2018-09-02T02:13:28.877Z,4.55
2018-09-02T02:15:57.798Z,8.03
2018-09-02T02:18:26.681Z,6.35
2018-09-02T02:20:55.624Z,7.20
2018-09-02T02:23:24.496Z,4.58
2018-09-02T02:25:53.392Z,5.47
2018-09-02T02:28:22.277Z,4.85
2018-09-02T02:30:51.145Z,6.47
2018-09-02T02:33:20.049Z,4.85
2018-09-02T02:35:48.934Z,6.00
2018-09-02T02:38:17.809Z,4.83
2018-09-02T02:40:46.686Z,4.40
2018-09-02T02:43:15.589Z,4.78
2018-09-02T02:45:44.476Z,5.40
2018-09-02T02:48:13.364Z,9.90
2018-09-02T02:50:42.266Z,5.03
2018-09-02T02:53:11.186Z,4.85
2018-09-02T02:55:40.070Z,6.92
2018-09-02T02:58:08.950Z,5.75
2018-09-02T03:00:37.855Z,5.90
2018-09-02T03:03:06.746Z,4.78
2018-09-02T03:05:36.042Z,6.80
2018-09-02T03:08:05.142Z,5.35
2018-09-02T03:10:34.046Z,7.17
2018-09-02T03:13:02.942Z,5.90
2018-09-02T03:15:31.846Z,9.15
2018-09-02T03:18:00.743Z,5.12
2018-09-02T03:20:29.707Z,7.50
2018-09-02T03:22:58.639Z,6.67
2018-09-02T03:25:27.536Z,9.00
2018-09-02T03:27:56.406Z,6.22
2018-09-02T03:30:25.294Z,5.47
2018-09-02T03:32:54.154Z,5.05
2018-09-02T03:35:23.034Z,6.12
2018-09-02T03:37:51.902Z,5.65
2018-09-02T03:40:20.786Z,5.28
2018-09-02T03:42:49.650Z,5.03
2018-09-02T03:45:18.534Z,5.72
2018-09-02T03:47:47.407Z,6.12
2018-09-02T03:50:16.301Z,5.67
2018-09-02T03:52:45.198Z,5.72
2018-09-02T03:55:14.134Z,6.80
2018-09-02T03:57:43.022Z,7.62
2018-09-02T04:00:11.944Z,5.83
2018-09-02T04:02:40.847Z,6.92
2018-09-02T04:05:09.736Z,5.87
2018-09-02T04:07:38.615Z,5.40
2018-09-02T04:10:07.552Z,6.20
2018-09-02T04:12:36.418Z,7.35
2018-09-02T04:15:06.234Z,5.42
2018-09-02T04:17:35.122Z,5.10
2018-09-02T04:20:04.294Z,5.67
2018-09-02T04:22:33.178Z,8.20
2018-09-02T04:25:02.105Z,6.08
2018-09-02T04:27:31.031Z,6.30
2018-09-02T04:29:59.898Z,6.55
2018-09-02T04:32:28.817Z,4.85
2018-09-02T04:34:57.766Z,7.05
2018-09-02T04:37:26.671Z,5.92
2018-09-02T04:39:55.634Z,4.85
2018-09-02T04:42:24.546Z,6.90
2018-09-02T04:44:53.539Z,5.22
2018-09-02T04:47:22.418Z,5.55
2018-09-02T04:49:51.282Z,5.22
2018-09-02T04:52:20.174Z,6.65
2018-09-02T04:54:49.051Z,6.33
2018-09-02T04:57:17.922Z,9.18
2018-09-02T04:59:46.778Z,8.38
2018-09-02T05:02:15.666Z,10.13
2018-09-02T05:04:44.547Z,7.20
2018-09-02T05:07:13.430Z,7.20
2018-09-02T05:09:42.362Z,6.97
2018-09-02T05:12:11.247Z,6.75
2018-09-02T05:14:40.110Z,8.08
2018-09-02T05:17:08.988Z,8.25
2018-09-02T05:19:37.866Z,9.03
2018-09-02T05:22:06.877Z,7.55
2018-09-02T05:24:35.784Z,10.82
2018-09-02T05:27:05.758Z,8.65
2018-09-02T05:29:34.654Z,8.73
2018-09-02T05:32:03.683Z,9.40
2018-09-02T05:34:32.601Z,9.08
2018-09-02T05:37:01.573Z,10.25
2018-09-02T05:39:30.523Z,8.98
2018-09-02T05:41:59.445Z,11.65
2018-09-02T05:44:28.334Z,7.75
2018-09-02T05:46:57.225Z,9.68
2018-09-02T05:49:26.098Z,8.63
2018-09-02T05:51:54.983Z,8.43
2018-09-02T05:54:23.974Z,10.40
2018-09-02T05:56:52.857Z,8.90
2018-09-02T05:59:21.741Z,8.33
2018-09-02T06:01:50.642Z,7.37
2018-09-02T06:04:19.561Z,7.10
2018-09-02T06:06:48.450Z,8.93
2018-09-02T06:09:17.330Z,8.00
2018-09-02T06:11:46.223Z,7.25
2018-09-02T06:14:15.110Z,7.20
2018-09-02T06:16:44.398Z,11.03
2018-09-02T06:19:13.296Z,9.23
2018-09-02T06:21:42.170Z,6.80
2018-09-02T06:24:11.047Z,8.48
2018-09-02T06:26:39.930Z,6.05
2018-09-02T06:29:08.805Z,6.67
2018-09-02T06:31:37.689Z,5.10
2018-09-02T06:34:06.565Z,6.05
2018-09-02T06:36:35.444Z,4.75
2018-09-02T06:39:06.466Z,7.25
2018-09-02T06:41:35.357Z,5.65
2018-09-02T06:44:04.318Z,6.15
2018-09-02T06:46:33.242Z,5.40
2018-09-02T06:49:02.171Z,6.15
2018-09-02T06:51:31.086Z,6.58
2018-09-02T06:53:59.974Z,6.92
2018-09-02T06:56:28.883Z,5.97
2018-09-02T06:58:57.774Z,5.62
2018-09-02T07:01:26.665Z,5.30
2018-09-02T07:03:55.554Z,7.15
2018-09-02T07:06:24.441Z,6.47
2018-09-02T07:08:53.313Z,5.85
2018-09-02T07:11:22.206Z,5.80
2018-09-02T07:13:51.086Z,5.92
2018-09-02T07:16:20.026Z,5.92
2018-09-02T07:18:48.886Z,6.17
2018-09-02T07:21:17.768Z,6.03
2018-09-02T07:23:46.644Z,7.00
2018-09-02T07:26:15.522Z,5.85
2018-09-02T07:28:44.405Z,7.15
2018-09-02T07:31:13.365Z,7.67
2018-09-02T07:33:42.199Z,4.83
2018-09-02T07:36:11.091Z,4.72
2018-09-02T07:38:40.005Z,4.87
2018-09-02T07:41:08.889Z,5.10
2018-09-02T07:43:37.826Z,5.47
2018-09-02T07:46:06.690Z,5.55
2018-09-02T07:48:35.599Z,4.97
2018-09-02T07:51:04.541Z,5.08
2018-09-02T07:53:33.439Z,4.60
2018-09-02T07:56:02.342Z,5.83
2018-09-02T07:58:31.246Z,5.40
2018-09-02T08:01:00.147Z,5.75
2018-09-02T08:03:29.082Z,4.58
2018-09-02T08:05:57.969Z,4.28
2018-09-02T08:08:26.865Z,4.67
2018-09-02T08:10:55.774Z,3.55
2018-09-02T08:13:24.663Z,3.02
2018-09-02T08:15:53.538Z,5.60
2018-09-02T08:18:22.434Z,3.65
2018-09-02T08:20:51.319Z,3.37
2018-09-02T08:23:20.246Z,3.45
2018-09-02T08:25:49.113Z,3.50
2018-09-02T08:28:18.057Z,3.15
2018-09-02T08:30:46.957Z,3.25
2018-09-02T08:33:15.845Z,3.35
2018-09-02T08:35:44.758Z,4.10
2018-09-02T08:38:13.650Z,3.60
2018-09-02T08:40:42.535Z,2.83
2018-09-02T08:43:11.418Z,2.60
2018-09-02T08:45:40.286Z,3.30
2018-09-02T08:48:09.178Z,3.47
2018-09-02T08:50:38.343Z,3.58
2018-09-02T08:53:09.399Z,3.55
2018-09-02T08:55:40.310Z,3.70
2018-09-02T08:58:13.699Z,3.20
2018-09-02T09:00:42.567Z,2.60
2018-09-02T09:03:11.498Z,3.27
2018-09-02T09:05:40.370Z,3.17
2018-09-02T09:08:09.391Z,3.05
2018-09-02T09:10:38.190Z,3.30
2018-09-02T09:13:07.090Z,3.25
2018-09-02T09:15:35.965Z,2.85
2018-09-02T09:18:05.208Z,3.40
2018-09-02T09:20:34.101Z,2.65
2018-09-02T09:23:03.062Z,3.40
2018-09-02T09:25:31.975Z,3.22
2018-09-02T09:28:00.888Z,3.30
2018-09-02T09:30:29.774Z,3.00
2018-09-02T09:32:58.733Z,3.22
2018-09-02T09:35:27.658Z,3.62
2018-09-02T09:37:56.582Z,3.33
2018-09-02T09:40:25.465Z,3.40
2018-09-02T09:42:54.385Z,3.05
2018-09-02T09:45:23.246Z,3.30
2018-09-02T09:47:52.186Z,2.80
2018-09-02T09:50:21.076Z,4.08
2018-09-02T09:52:49.985Z,3.30
2018-09-02T09:55:18.849Z,3.50
2018-09-02T09:57:47.761Z,3.45
2018-09-02T10:00:22.179Z,4.20
2018-09-02T10:02:51.063Z,3.00
2018-09-02T10:05:19.922Z,3.95
2018-09-02T10:07:48.825Z,3.30
2018-09-02T10:10:17.870Z,3.47
2018-09-02T10:12:46.845Z,3.52
2018-09-02T10:15:15.715Z,3.17
2018-09-02T10:17:44.592Z,2.75
2018-09-02T10:20:13.458Z,3.50
2018-09-02T10:22:42.378Z,2.62
2018-09-02T10:25:11.255Z,2.60
2018-09-02T10:27:40.143Z,2.92
2018-09-02T10:30:09.026Z,2.27
2018-09-02T10:32:37.959Z,2.87
2018-09-02T10:35:06.874Z,2.80
2018-09-02T10:37:35.757Z,3.80
2018-09-02T10:40:04.727Z,2.80
2018-09-02T10:42:33.635Z,2.67
2018-09-02T10:45:02.533Z,2.45
2018-09-02T10:47:31.461Z,3.12
2018-09-02T10:50:00.438Z,3.42
2018-09-02T10:52:29.347Z,2.50
2018-09-02T10:54:58.242Z,2.45
2018-09-02T10:57:27.175Z,2.52
2018-09-02T10:59:56.066Z,3.55
2018-09-02T11:02:24.962Z,2.30
2018-09-02T11:04:54.298Z,2.72
2018-09-02T11:07:23.426Z,3.72
2018-09-02T11:09:52.373Z,2.35
2018-09-02T11:12:21.275Z,2.85
2018-09-02T11:14:50.165Z,2.58
2018-09-02T11:17:19.062Z,2.70
2018-09-02T11:19:47.938Z,2.65
2018-09-02T11:22:16.919Z,2.70
2018-09-02T11:24:45.817Z,3.45
2018-09-02T11:27:14.710Z,2.20
2018-09-02T11:29:43.631Z,2.50
2018-09-02T11:32:12.525Z,2.37
2018-09-02T11:34:41.399Z,2.20
2018-09-02T11:37:10.290Z,2.15
2018-09-02T11:39:39.163Z,1.80
2018-09-02T11:42:08.051Z,2.05
2018-09-02T11:44:36.950Z,2.40
2018-09-02T11:47:06.014Z,2.47
2018-09-02T11:49:34.889Z,1.87
2018-09-02T11:52:03.810Z,2.83
2018-09-02T11:54:32.714Z,2.58
2018-09-02T11:57:01.696Z,2.70
2018-09-02T11:59:30.579Z,1.92
2018-09-02T12:01:59.465Z,2.22
2018-09-02T12:04:28.387Z,2.58
2018-09-02T12:06:57.275Z,3.20
2018-09-02T12:09:26.163Z,1.90
2018-09-02T12:11:55.039Z,3.00
2018-09-02T12:14:23.937Z,3.17
2018-09-02T12:16:52.812Z,2.10
2018-09-02T12:19:21.774Z,2.87
2018-09-02T12:21:50.699Z,2.55
2018-09-02T12:24:19.954Z,3.02
2018-09-02T12:26:48.865Z,3.77
2018-09-02T12:29:17.945Z,2.85
2018-09-02T12:31:46.829Z,2.40
2018-09-02T12:34:15.734Z,2.87
2018-09-02T12:36:44.718Z,2.70
2018-09-02T12:39:13.617Z,2.58
2018-09-02T12:41:42.489Z,3.12
2018-09-02T12:44:11.377Z,2.72
2018-09-02T12:46:40.274Z,2.90
2018-09-02T12:49:09.161Z,2.50
2018-09-02T12:51:38.094Z,2.52
2018-09-02T12:54:07.134Z,2.40
2018-09-02T12:56:35.995Z,2.65
2018-09-02T12:59:05.174Z,2.72
2018-09-02T13:01:34.242Z,2.47
2018-09-02T13:04:03.140Z,2.17
2018-09-02T13:06:32.038Z,2.98
2018-09-02T13:09:01.033Z,2.70
2018-09-02T13:11:30.010Z,2.47
2018-09-02T13:13:58.946Z,2.15
2018-09-02T13:16:27.869Z,2.35
2018-09-02T13:18:56.824Z,2.45
2018-09-02T13:21:25.675Z,2.40
2018-09-02T13:23:54.699Z,2.33
2018-09-02T13:26:23.529Z,2.22
2018-09-02T13:28:52.534Z,2.35
2018-09-02T13:31:21.549Z,2.83
2018-09-02T13:33:50.542Z,2.50
2018-09-02T13:36:19.341Z,2.98
2018-09-02T13:38:48.217Z,2.58
2018-09-02T13:41:17.190Z,2.70
2018-09-02T13:43:46.094Z,3.95
2018-09-02T13:46:14.985Z,2.12
2018-09-02T13:48:44.018Z,2.52
2018-09-02T13:51:12.894Z,2.65
2018-09-02T13:53:41.786Z,2.67
2018-09-02T13:56:10.683Z,2.52
2018-09-02T13:58:39.725Z,2.75
2018-09-02T14:01:08.751Z,2.75
2018-09-02T14:03:37.654Z,2.45
2018-09-02T14:06:06.521Z,2.65
2018-09-02T14:08:35.567Z,2.67
2018-09-02T14:11:04.666Z,3.00
2018-09-02T14:13:33.578Z,2.90
2018-09-02T14:16:02.497Z,2.80
2018-09-02T14:18:31.466Z,2.98
2018-09-02T14:21:00.372Z,2.65
2018-09-02T14:23:32.298Z,3.35
2018-09-02T14:26:01.245Z,3.45
2018-09-02T14:28:30.347Z,2.25
2018-09-02T14:30:59.222Z,11.38
2018-09-02T14:33:28.154Z,2.50
2018-09-02T14:35:57.146Z,2.50
2018-09-02T14:38:26.146Z,3.33
2018-09-02T14:40:55.286Z,3.10
2018-09-02T14:43:24.170Z,3.00
2018-09-02T14:45:53.042Z,3.00
2018-09-02T14:48:21.954Z,2.85
2018-09-02T14:50:50.839Z,3.10
2018-09-02T14:53:19.695Z,3.40
2018-09-02T14:55:48.574Z,3.05
2018-09-02T14:58:17.491Z,3.35
2018-09-02T15:00:46.514Z,3.77
2018-09-02T15:03:15.393Z,3.12
2018-09-02T15:05:51.113Z,3.98
2018-09-02T15:08:20.002Z,3.42
2018-09-02T15:10:48.874Z,2.70
2018-09-02T15:13:17.770Z,4.17
2018-09-02T15:15:46.910Z,3.62
2018-09-02T15:18:15.862Z,3.25
2018-09-02T15:20:44.744Z,3.40
2018-09-02T15:23:13.681Z,5.90
2018-09-02T15:25:42.564Z,3.60
2018-09-02T15:28:11.457Z,4.35
2018-09-02T15:30:40.326Z,2.95
2018-09-02T15:33:09.227Z,3.80
2018-09-02T15:35:38.099Z,3.85
2018-09-02T15:38:06.986Z,3.62
2018-09-02T15:40:35.897Z,3.45
2018-09-02T15:43:04.918Z,3.77
2018-09-02T15:45:33.806Z,4.30
2018-09-02T15:48:02.758Z,4.60
2018-09-02T15:50:31.727Z,3.80
2018-09-02T15:53:00.639Z,4.37
2018-09-02T15:55:29.816Z,3.70
2018-09-02T15:57:58.793Z,4.28
2018-09-02T16:00:27.669Z,4.75
2018-09-02T16:02:56.562Z,3.90
2018-09-02T16:05:25.555Z,5.33
2018-09-02T16:07:54.497Z,3.62
2018-09-02T16:10:23.382Z,4.42
2018-09-02T16:12:52.403Z,4.50
2018-09-02T16:15:21.366Z,4.10
2018-09-02T16:17:50.257Z,3.83
2018-09-02T16:20:19.238Z,4.20
2018-09-02T16:22:48.118Z,3.70
2018-09-02T16:25:17.014Z,5.95
2018-09-02T16:27:45.914Z,4.25
2018-09-02T16:30:14.938Z,4.50
2018-09-02T16:32:43.930Z,4.33
2018-09-02T16:35:12.822Z,4.70
2018-09-02T16:37:41.727Z,5.08
2018-09-02T16:40:10.647Z,4.00
2018-09-02T16:42:39.570Z,4.90
2018-09-02T16:45:08.620Z,4.22
2018-09-02T16:47:37.530Z,6.87
2018-09-02T16:50:06.746Z,5.10
2018-09-02T16:52:35.740Z,16.62
2018-09-02T16:55:04.679Z,5.97
2018-09-02T16:57:33.570Z,5.10
2018-09-02T17:00:02.519Z,5.40
2018-09-02T17:02:31.562Z,4.75
2018-09-02T17:05:05.111Z,4.97
2018-09-02T17:07:34.014Z,7.75
2018-09-02T17:10:02.950Z,5.22
2018-09-02T17:12:33.027Z,5.58
2018-09-02T17:15:01.889Z,6.10
2018-09-02T17:17:30.893Z,5.53
2018-09-02T17:20:00.262Z,5.67
2018-09-02T17:22:29.170Z,5.12
2018-09-02T17:24:58.259Z,5.20
2018-09-02T17:27:27.145Z,6.15
2018-09-02T17:29:56.069Z,5.05
2018-09-02T17:32:25.670Z,6.70
2018-09-02T17:34:54.607Z,6.10
2018-09-02T17:37:23.478Z,5.30
2018-09-02T17:39:52.374Z,6.70
2018-09-02T17:42:21.238Z,5.85
2018-09-02T17:44:50.140Z,8.05
2018-09-02T17:47:19.015Z,6.17
2018-09-02T17:49:47.914Z,6.97
2018-09-02T17:52:16.822Z,7.33
2018-09-02T17:54:45.759Z,8.55
2018-09-02T17:57:14.654Z,8.53
2018-09-02T17:59:43.567Z,7.33
2018-09-02T18:02:12.511Z,8.20
2018-09-02T18:04:41.459Z,12.82
2018-09-02T18:07:10.358Z,8.05
2018-09-02T18:09:39.251Z,9.20
2018-09-02T18:12:08.129Z,8.60
2018-09-02T18:14:37.009Z,10.48
2018-09-02T18:17:05.959Z,9.58
2018-09-02T18:19:34.846Z,8.50
2018-09-02T18:22:03.773Z,8.93
2018-09-02T18:24:32.720Z,10.05
2018-09-02T18:27:01.604Z,9.60
2018-09-02T18:29:30.508Z,9.43
2018-09-02T18:31:59.490Z,10.82
2018-09-02T18:34:28.431Z,9.85
2018-09-02T18:36:57.368Z,10.72
2018-09-02T18:39:26.500Z,10.05
2018-09-02T18:41:55.316Z,11.15
2018-09-02T18:44:24.213Z,11.10
2018-09-02T18:46:53.146Z,12.07
2018-09-02T18:49:22.134Z,10.95
2018-09-02T18:51:51.163Z,11.57
2018-09-02T18:54:20.117Z,10.15
2018-09-02T18:56:49.011Z,10.72
2018-09-02T18:59:17.949Z,10.98
2018-09-02T19:01:46.958Z,11.15
2018-09-02T19:04:15.856Z,10.60
2018-09-02T19:06:44.744Z,11.68
2018-09-02T19:09:13.738Z,9.88
2018-09-02T19:11:42.857Z,9.68
2018-09-02T19:14:11.885Z,11.73
2018-09-02T19:16:40.817Z,10.63
2018-09-02T19:19:09.962Z,11.40
2018-09-02T19:21:38.871Z,10.43
2018-09-02T19:24:07.873Z,9.43
2018-09-02T19:26:36.786Z,10.03
2018-09-02T19:29:05.731Z,11.35
2018-09-02T19:31:34.886Z,12.00
2018-09-02T19:34:04.002Z,12.45
2018-09-02T19:36:33.022Z,10.95
2018-09-02T19:39:02.177Z,10.78
2018-09-02T19:41:31.151Z,10.78
2018-09-02T19:44:00.114Z,12.63
2018-09-02T19:46:29.469Z,11.53
2018-09-02T19:48:58.476Z,10.38
2018-09-02T19:51:27.458Z,10.50
2018-09-02T19:53:56.435Z,12.50
2018-09-02T19:56:25.454Z,9.60
2018-09-02T19:58:54.408Z,14.98
2018-09-02T20:01:23.369Z,12.35
2018-09-02T20:03:52.594Z,14.18
2018-09-02T20:06:21.553Z,12.60
2018-09-02T20:08:50.502Z,13.50
2018-09-02T20:11:19.481Z,13.58
2018-09-02T20:13:48.426Z,13.10
2018-09-02T20:16:17.368Z,15.05
2018-09-02T20:18:46.252Z,12.73
2018-09-02T20:21:15.242Z,14.20
2018-09-02T20:23:44.161Z,16.80
2018-09-02T20:26:13.154Z,15.45
2018-09-02T20:28:42.147Z,18.52
2018-09-02T20:31:11.170Z,14.43
2018-09-02T20:33:40.331Z,15.50
2018-09-02T20:36:10.122Z,15.18
2018-09-02T20:38:39.874Z,15.53
2018-09-02T20:41:08.914Z,14.40
2018-09-02T20:43:37.821Z,14.90
2018-09-02T20:46:06.805Z,14.50
2018-09-02T20:48:35.733Z,14.85
2018-09-02T20:51:04.777Z,15.15
2018-09-02T20:53:33.697Z,15.50
2018-09-02T20:56:03.087Z,15.45
2018-09-02T20:58:32.069Z,15.00
2018-09-02T21:01:01.033Z,15.45
2018-09-02T21:03:29.978Z,17.30
2018-09-02T21:05:59.187Z,15.20
2018-09-02T21:08:28.262Z,17.62
2018-09-02T21:10:57.242Z,18.10
2018-09-02T21:13:26.138Z,19.55
2018-09-02T21:15:55.190Z,18.35
2018-09-02T21:18:24.153Z,17.48
2018-09-02T21:20:53.081Z,17.65
2018-09-02T21:23:21.998Z,16.15
2018-09-02T21:25:50.987Z,14.05
2018-09-02T21:28:20.038Z,18.57
2018-09-02T21:30:49.002Z,14.47
2018-09-02T21:33:18.070Z,17.35
2018-09-02T21:35:47.031Z,14.53
2018-09-02T21:38:17.482Z,15.83
2018-09-02T21:40:46.483Z,16.55
2018-09-02T21:43:15.571Z,13.53
2018-09-02T21:45:44.531Z,16.15
2018-09-02T21:48:13.571Z,15.78
2018-09-02T21:50:42.662Z,15.68
2018-09-02T21:53:11.682Z,13.80
2018-09-02T21:55:40.730Z,14.13
2018-09-02T21:58:09.682Z,15.30
2018-09-02T22:00:40.935Z,13.18
2018-09-02T22:03:09.854Z,14.05
2018-09-02T22:05:38.961Z,14.60
2018-09-02T22:08:07.870Z,11.75
2018-09-02T22:10:37.068Z,14.53
2018-09-02T22:13:06.065Z,14.95
2018-09-02T22:15:35.090Z,14.33
2018-09-02T22:18:04.362Z,15.43
2018-09-02T22:20:33.372Z,16.60
2018-09-02T22:23:02.318Z,17.92
2018-09-02T22:25:31.382Z,14.07
2018-09-02T22:28:00.333Z,11.93
2018-09-02T22:30:29.358Z,13.35
2018-09-02T22:32:58.304Z,16.95
2018-09-02T22:35:27.283Z,15.50
2018-09-02T22:37:56.158Z,14.78
2018-09-02T22:40:25.190Z,16.40
2018-09-02T22:42:54.101Z,14.98
2018-09-02T22:45:23.073Z,12.07
2018-09-02T22:47:52.050Z,12.65
2018-09-02T22:50:20.998Z,14.60
2018-09-02T22:52:50.025Z,13.50
2018-09-02T22:55:19.078Z,16.37
2018-09-02T22:57:47.998Z,14.03
2018-09-02T23:00:16.933Z,14.75
2018-09-02T23:02:45.827Z,16.95
2018-09-02T23:05:14.830Z,17.57
2018-09-02T23:07:43.708Z,14.53
2018-09-02T23:10:12.617Z,15.85
2018-09-02T23:12:41.558Z,18.82
2018-09-02T23:15:10.463Z,15.78
2018-09-02T23:17:39.347Z,16.62
2018-09-02T23:20:08.293Z,16.85
2018-09-02T23:22:37.182Z,16.48
2018-09-02T23:25:06.146Z,17.00
2018-09-02T23:27:35.038Z,16.82
2018-09-02T23:30:04.062Z,21.42
2018-09-02T23:32:33.081Z,15.53
2018-09-02T23:35:01.990Z,16.97
2018-09-02T23:37:30.918Z,17.77
2018-09-02T23:39:59.844Z,16.77
2018-09-02T23:42:28.734Z,20.32
2018-09-02T23:44:57.675Z,13.15
2018-09-02T23:47:26.546Z,18.45
2018-09-02T23:49:55.502Z,14.80
2018-09-02T23:52:24.413Z,18.12
2018-09-02T23:54:53.333Z,17.65
2018-09-02T23:57:22.212Z,18.20
2018-09-02T23:59:51.471Z,18.77
